Latest Weather Observations for Parawa West

IDS60901

Issued at 11:11 am CST Friday 14 May 2021 (issued every 10 minutes, with the page automatically refreshed every 10 minutes)

About weather observations | Map of Adelaide area stations | Latest observations for Adelaide area | Other Formats
Station Details ID: 023875 Name: SECOND VALLEY FOREST AWS Lat: -35.57 Lon: 138.29 Height: 341.0 m
Data from the previous 72 hours. | See also: Recent months at Parawa West
Date/Time
CST
Temp
°C
App
Temp
°C
Dew
Point
°C
Rel
Hum
%
Delta-T
°C
Wind Press
QNH
hPa
Press
MSL
hPa
Rain since
9am
mm
Dir  Spd
km/h
Gust
km/h
Spd
kts
Gust
kts
14/11:00am 10.7 7.7 9.3 91 0.7 SW 15 26 8 14 1021.1 1021.0 0.6
14/10:30am 9.8 5.8 8.9 94 0.4 WSW 20 35 11 19 1021.3 1021.2 0.4
14/10:00am 11.7 9.4 8.9 83 1.4 WSW 11 20 6 11 1021.0 1020.9 0.0
14/09:30am 11.3 8.8 9.6 89 0.9 WSW 13 20 7 11 1021.1 1021.0 0.0
14/09:00am 10.0 7.4 9.2 95 0.4 WSW 13 19 7 10 1021.0 1020.9 2.2
14/08:30am 10.1 7.8 8.9 92 0.6 SW 11 15 6 8 1020.8 1020.7 1.8
14/08:00am 9.7 6.3 9.1 96 0.3 SW 17 28 9 15 1020.5 1020.4 1.8
14/07:30am 10.2 7.5 9.0 92 0.6 WSW 13 19 7 10 1019.9 1019.8 1.4
14/07:00am 10.2 7.9 9.0 92 0.6 WSW 11 19 6 10 1019.5 1019.4 1.4
14/06:30am 9.9 7.2 9.0 94 0.5 WSW 13 17 7 9 1019.2 1019.1 1.4
14/06:00am 9.9 6.1 9.1 95 0.4 SW 19 30 10 16 1018.9 1018.8 1.4
14/05:30am 10.0 7.0 9.4 96 0.3 WSW 15 26 8 14 1018.7 1018.6 1.2
14/05:00am 9.8 7.1 8.9 94 0.5 WSW 13 20 7 11 1018.4 1018.3 1.0
14/04:30am 9.7 7.4 9.1 96 0.3 WSW 11 17 6 9 1018.2 1018.1 1.0
14/04:00am 9.8 6.7 8.9 94 0.5 SW 15 28 8 15 1018.2 1018.1 1.0
14/03:30am 10.1 6.4 9.5 96 0.3 WSW 19 33 10 18 1018.4 1018.3 1.0
14/03:00am 10.0 6.6 9.1 94 0.5 W 17 26 9 14 1018.3 1018.2 0.8
14/02:30am 10.1 6.1 9.2 94 0.5 W 20 33 11 18 1018.6 1018.5 0.8
14/02:00am 9.8 5.4 9.0 95 0.4 W 22 30 12 16 1018.8 1018.7 0.8
14/01:30am 11.1 5.9 7.2 77 1.9 W 24 41 13 22 1018.7 1018.6 0.6
14/01:00am 10.8 6.4 6.6 75 2.0 W 19 30 10 16 1018.8 1018.7 0.6
14/12:30am 9.7 6.0 6.2 79 1.6 WNW 15 20 8 11 1019.0 1018.9 0.6
14/12:00am 9.8 6.1 6.5 80 1.6 W 15 24 8 13 1019.0 1018.9 0.6
 
Date/Time
CST
Temp
°C
App
Temp
°C
Dew
Point
°C
Rel
Hum
%
Delta-T
°C
Wind Press
QNH
hPa
Press
MSL
hPa
Rain since
9am
mm
Dir  Spd
km/h
Gust
km/h
Spd
kts
Gust
kts
13/11:30pm 9.9 6.0 7.0 82 1.4 W 17 24 9 13 1019.3 1019.2 0.6
13/11:00pm 9.6 6.0 6.9 83 1.3 W 15 20 8 11 1019.6 1019.5 0.6
13/10:30pm 9.4 5.7 6.5 82 1.4 W 15 20 8 11 1019.7 1019.6 0.6
13/10:00pm 9.5 5.9 6.8 83 1.3 W 15 24 8 13 1019.9 1019.8 0.6
13/09:30pm 9.4 5.8 6.8 84 1.2 W 15 20 8 11 1019.8 1019.7 0.6
13/09:00pm 9.4 5.4 6.8 84 1.2 W 17 24 9 13 1019.7 1019.6 0.6
13/08:30pm 9.2 5.5 6.5 83 1.3 W 15 22 8 12 1019.6 1019.5 0.6
13/08:00pm 9.3 5.5 6.0 80 1.5 W 15 20 8 11 1019.5 1019.4 0.6
13/07:30pm 9.2 5.8 5.8 79 1.6 W 13 19 7 10 1019.5 1019.4 0.6
13/07:00pm 9.4 5.6 5.9 79 1.6 W 15 22 8 12 1019.4 1019.3 0.6
13/06:30pm 9.9 6.6 6.3 78 1.7 WSW 13 20 7 11 1019.1 1019.0 0.6
13/06:00pm 9.6 6.2 6.0 78 1.7 WSW 13 20 7 11 1018.9 1018.8 0.6
13/05:30pm 10.2 6.4 5.8 74 2.1 WSW 15 20 8 11 1018.8 1018.7 0.6
13/05:00pm 10.7 7.1 6.6 76 2.0 WSW 15 26 8 14 1018.5 1018.4 0.6
13/04:30pm 11.0 7.9 7.3 78 1.8 WSW 13 24 7 13 1018.3 1018.2 0.6
13/04:00pm 11.5 8.5 7.8 78 1.8 WSW 13 20 7 11 1018.2 1018.1 0.6
13/03:30pm 10.6 6.4 7.5 81 1.5 SW 19 28 10 15 1017.9 1017.8 0.6
13/03:00pm 11.9 8.6 8.0 77 1.9 SW 15 24 8 13 1017.5 1017.3 0.6
13/02:30pm 10.5 5.8 7.9 84 1.3 SW 22 35 12 19 1017.4 1017.2 0.6
13/02:00pm 11.3 7.2 7.8 79 1.7 SSW 19 26 10 14 1017.3 1017.1 0.6
13/01:30pm 11.6 7.6 8.3 80 1.7 SSW 19 32 10 17 1017.1 1017.0 0.6
13/01:00pm 11.0 7.2 9.1 88 1.0 SW 19 30 10 16 1017.4 1017.2 0.6
13/12:30pm 11.6 8.4 8.6 82 1.5 SW 15 28 8 15 1017.3 1017.1 0.4
13/12:00pm 11.4 7.6 9.1 86 1.2 SW 19 30 10 16 1017.6 1017.4 0.4
13/11:30am 12.2 8.9 9.4 83 1.4 SW 17 28 9 15 1017.7 1017.6 0.4
13/11:00am 11.7 8.0 9.4 86 1.2 SW 19 28 10 15 1017.7 1017.6 0.4
13/10:30am 11.5 8.0 10.2 92 0.7 SSW 19 28 10 15 1017.3 1017.1 0.4
13/10:00am 11.2 7.6 10.6 96 0.3 SSW 20 28 11 15 1016.8 1016.7 0.4
13/09:30am 10.7 7.1 10.5 99 0.1 SSW 20 32 11 17 1016.9 1016.8 0.2
13/09:00am 10.9 7.3 10.7 99 0.1 SSW 20 33 11 18 1016.5 1016.4 3.4
13/08:30am 11.4 8.6 11.2 99 0.1 SSW 17 24 9 13 1016.0 1015.9 3.0
13/08:00am 12.4 9.3 12.1 98 0.2 W 20 33 11 18 1015.6 1015.5 2.2
13/07:30am 12.4 9.3 11.5 94 0.5 NW 19 30 10 16 1015.0 1014.8 0.0
13/07:00am 12.2 8.7 10.8 91 0.7 NW 20 32 11 17 1014.9 1014.7 0.0
13/06:30am 12.1 8.4 10.2 88 1.0 NW 20 33 11 18 1014.7 1014.5 0.0
13/06:00am 11.8 7.7 10.0 89 0.9 NW 22 32 12 17 1014.8 1014.6 0.0
13/05:30am 12.0 8.3 10.1 88 1.0 NW 20 33 11 18 1015.0 1014.8 0.0
13/05:00am 12.0 7.8 9.9 87 1.1 NW 22 35 12 19 1014.8 1014.6 0.0
13/04:30am 11.7 8.0 9.4 86 1.2 NW 19 30 10 16 1014.5 1014.3 0.0
13/04:00am 11.5 8.2 9.4 87 1.1 NW 17 28 9 15 1014.7 1014.5 0.0
13/03:30am 11.3 7.6 9.4 88 1.0 NW 19 32 10 17 1014.9 1014.7 0.0
13/03:00am 11.0 6.6 8.9 87 1.1 NW 22 35 12 19 1015.0 1014.8 0.0
13/02:30am 10.9 6.4 8.7 86 1.1 NW 22 32 12 17 1015.7 1015.6 0.0
13/02:00am 10.8 6.6 8.4 85 1.2 NW 20 35 11 19 1016.0 1015.9 0.0
13/01:30am 10.6 6.6 8.2 85 1.2 NW 19 33 10 18 1016.4 1016.3 0.0
13/01:00am 10.6 6.5 8.0 84 1.3 NW 19 28 10 15 1017.0 1016.9 0.0
13/12:30am 10.3 6.0 7.7 84 1.3 NW 20 30 11 16 1016.9 1016.8 0.0
13/12:00am 9.9 5.7 7.5 85 1.2 NW 19 28 10 15 1016.9 1016.8 0.0
 
Date/Time
CST
Temp
°C
App
Temp
°C
Dew
Point
°C
Rel
Hum
%
Delta-T
°C
Wind Press
QNH
hPa
Press
MSL
hPa
Rain since
9am
mm
Dir  Spd
km/h
Gust
km/h
Spd
kts
Gust
kts
12/11:30pm 10.0 5.8 7.3 83 1.3 NW 19 28 10 15 1017.0 1016.9 0.0
12/11:00pm 10.4 6.2 7.6 83 1.4 NW 19 30 10 16 1017.4 1017.2 0.0
12/10:30pm 10.3 7.2 7.2 81 1.5 NW 13 22 7 12 1017.3 1017.1 0.0
12/10:00pm 10.1 7.4 7.5 84 1.3 NW 11 20 6 11 1017.5 1017.3 0.0
12/09:30pm 9.8 6.7 7.2 84 1.3 NW 13 20 7 11 1018.0 1017.9 0.0
12/09:00pm 8.9 6.9 7.0 88 0.9 NW 7 17 4 9 1018.2 1018.1 0.0
12/08:30pm 8.6 6.7 6.6 87 0.9 NW 6 13 3 7 1018.5 1018.4 0.0
12/08:00pm 8.7 6.6 6.7 87 0.9 NW 7 11 4 6 1018.9 1018.8 0.0
12/07:30pm 8.5 6.4 6.5 87 0.9 NNW 7 13 4 7 1019.2 1019.1 0.0
12/07:00pm 8.6 6.7 6.7 88 0.9 NNW 6 9 3 5 1019.6 1019.5 0.0
12/06:30pm 8.7 6.7 6.3 85 1.1 NNW 6 9 3 5 1019.5 1019.4 0.0
12/06:00pm 9.0 6.9 6.6 85 1.1 NW 7 13 4 7 1019.5 1019.4 0.0
12/05:30pm 9.6 7.6 7.0 84 1.2 NW 7 11 4 6 1019.4 1019.3 0.0
12/05:00pm 10.1 8.1 7.2 82 1.4 NW 7 11 4 6 1019.3 1019.2 0.0
12/04:30pm 10.5 8.7 7.2 80 1.6 NW 6 9 3 5 1019.7 1019.6 0.0
12/04:00pm 11.1 9.0 6.8 75 2.1 NW 7 13 4 7 1019.7 1019.6 0.0
12/03:30pm 11.7 9.3 7.0 73 2.3 NW 9 15 5 8 1019.9 1019.8 0.0
12/03:00pm 10.8 7.7 7.1 78 1.8 WNW 13 20 7 11 1020.4 1020.3 0.0
12/02:30pm 11.0 7.9 7.1 77 1.9 NW 13 24 7 13 1020.2 1020.2 0.0
12/02:00pm 11.0 8.9 6.7 75 2.1 NW 7 15 4 8 1020.5 1020.4 0.0
12/01:30pm 11.1 8.8 7.4 78 1.8 NW 9 19 5 10 1020.7 1020.6 0.0
12/01:00pm 11.1 9.3 7.2 77 1.9 NW 6 13 3 7 1021.2 1021.1 0.0
12/12:30pm 11.3 9.6 7.6 78 1.8 NW 6 15 3 8 1021.9 1021.8 0.0
12/12:00pm 11.6 9.7 7.5 76 2.0 NW 7 15 4 8 1022.3 1022.2 0.0
12/11:30am 11.4 9.5 6.5 72 2.3 N 6 11 3 6 1022.7 1022.7 0.0
12/11:00am 11.2 9.3 6.5 73 2.3 NW 6 13 3 7 1023.2 1023.2 0.0
12/10:30am 11.3 9.4 6.6 73 2.3 NNE 6 9 3 5 1023.5 1023.4 0.0
12/10:00am 10.7 7.7 6.1 73 2.2 NE 11 17 6 9 1023.9 1023.8 0.0
12/09:30am 10.9 8.0 6.5 74 2.1 NE 11 17 6 9 1024.1 1024.0 0.0
12/09:00am 10.2 7.2 6.2 76 1.9 NE 11 15 6 8 1024.4 1024.3 0.4
12/08:30am 9.6 6.7 6.5 81 1.5 NE 11 17 6 9 1024.5 1024.4 0.4
12/08:00am 9.3 7.3 6.9 85 1.1 NE 7 9 4 5 1024.5 1024.4 0.4
12/07:30am 9.2 7.1 6.6 84 1.2 NE 7 11 4 6 1024.3 1024.2 0.4
12/07:00am 9.0 7.9 6.8 86 1.0 N 2 4 1 2 1024.2 1024.1 0.4
12/06:30am 9.2 7.1 6.6 84 1.2 NE 7 9 4 5 1024.0 1023.9 0.4
12/06:00am 9.3 7.4 6.6 83 1.3 NNE 6 9 3 5 1023.9 1023.8 0.4
12/05:30am 9.4 7.3 6.8 84 1.2 ENE 7 9 4 5 1023.8 1023.7 0.4
12/05:00am 9.4 7.4 7.0 85 1.1 E 7 11 4 6 1023.7 1023.6 0.4
12/04:30am 9.4 7.6 7.0 85 1.1 E 6 9 3 5 1023.3 1023.3 0.4
12/04:00am 9.1 7.2 6.5 84 1.2 ENE 6 9 3 5 1023.5 1023.4 0.4
12/03:30am 9.2 6.2 6.1 81 1.4 E 11 15 6 8 1023.6 1023.5 0.4
12/03:00am 10.0 7.1 6.5 79 1.7 E 11 15 6 8 1024.2 1024.1 0.4
12/02:30am 10.2 7.3 6.5 78 1.8 ESE 11 15 6 8 1024.5 1024.4 0.4
12/02:00am 10.3 6.9 6.1 75 2.0 ESE 13 20 7 11 1024.6 1024.5 0.4
12/01:30am 10.1 6.3 5.7 74 2.0 ESE 15 20 8 11 1024.7 1024.6 0.4
12/01:00am 10.2 6.9 6.2 76 1.9 ESE 13 19 7 10 1025.0 1024.9 0.4
12/12:30am 10.1 6.2 5.5 73 2.1 ESE 15 24 8 13 1025.2 1025.2 0.4
12/12:00am 10.0 5.3 5.2 72 2.2 ESE 19 24 10 13 1025.4 1025.4 0.4
 
Date/Time
CST
Temp
°C
App
Temp
°C
Dew
Point
°C
Rel
Hum
%
Delta-T
°C
Wind Press
QNH
hPa
Press
MSL
hPa
Rain since
9am
mm
Dir  Spd
km/h
Gust
km/h
Spd
kts
Gust
kts
11/11:30pm 10.2 6.4 6.0 75 2.0 ESE 15 20 8 11 1025.5 1025.5 0.4
11/11:00pm 10.3 5.5 5.7 73 2.2 SE 20 30 11 16 1025.8 1025.8 0.4
11/10:30pm 10.4 5.8 6.5 77 1.9 SE 20 24 11 13 1026.0 1026.0 0.4
11/10:00pm 10.3 7.0 6.3 76 1.9 SE 13 19 7 10 1026.2 1026.2 0.4
11/09:30pm 10.3 5.5 5.5 72 2.2 SE 20 26 11 14 1026.2 1026.2 0.4
11/09:00pm 10.4 4.9 5.8 73 2.1 SE 24 33 13 18 1026.1 1026.1 0.4
11/08:30pm 10.4 5.8 6.4 76 1.9 SE 20 28 11 15 1025.9 1025.9 0.4
11/08:00pm 10.3 5.8 7.0 80 1.6 SE 20 33 11 18 1025.9 1025.9 0.4
11/07:30pm 10.2 4.9 6.9 80 1.6 SE 24 33 13 18 1025.7 1025.7 0.4
11/07:00pm 10.0 4.3 6.9 81 1.5 SE 26 39 14 21 1025.4 1025.4 0.4
11/06:30pm 9.6 5.5 8.5 93 0.5 ESE 20 28 11 15 1025.2 1025.2 0.4
11/06:00pm 10.4 5.5 6.7 78 1.8 SE 22 32 12 17 1024.9 1024.8 0.4
11/05:30pm 10.3 5.4 5.3 71 2.3 SSE 20 26 11 14 1024.8 1024.7 0.4
11/05:00pm 10.4 5.7 5.2 70 2.4 SSE 19 26 10 14 1024.8 1024.7 0.4
11/04:30pm 10.9 5.8 6.1 72 2.3 SSE 22 32 12 17 1024.7 1024.6 0.4
11/04:00pm 11.1 6.3 7.2 77 1.9 SE 22 30 12 16 1024.7 1024.6 0.4
11/03:30pm 10.9 5.9 8.0 82 1.4 SE 24 30 13 16 1024.7 1024.6 0.4
11/03:00pm 11.1 6.2 8.5 84 1.3 SE 24 33 13 18 1024.6 1024.5 0.4
11/02:30pm 11.3 6.1 7.4 77 1.9 SE 24 35 13 19 1024.4 1024.3 0.4
11/02:00pm 11.5 6.3 7.2 75 2.1 SE 24 33 13 18 1024.5 1024.4 0.4
11/01:30pm 11.4 6.5 8.4 82 1.5 SE 24 35 13 19 1024.5 1024.4 0.4
11/01:00pm 11.1 7.0 8.5 84 1.3 SE 20 30 11 16 1024.7 1024.6 0.4
11/12:30pm 11.3 7.1 8.3 82 1.5 SE 20 32 11 17 1024.9 1024.8 0.4
11/12:00pm 11.0 7.6 9.1 88 1.0 SE 17 24 9 13 1025.2 1025.2 0.4
11/11:30am 10.7 6.1 9.8 94 0.5 SE 24 30 13 16 1025.4 1025.4 0.2

Latest Capital City Observations: Canberra | Sydney | Melbourne | Brisbane | Adelaide | Perth | Hobart | Darwin

Other formats

Comma delimited format used in spreadsheet applications
http://www.bom.gov.au/fwo/IDS60901/IDS60901.94811.axf

JavaScript Object Notation format (JSON) in row-major order
http://www.bom.gov.au/fwo/IDS60901/IDS60901.94811.json

Data quality

Most of these data are generated automatically and are frequently updated. Quality checks on data are not normally performed. It is possible for incorrect values to appear. Refer to information at About Latest Weather Observations and please check the disclaimer before using these data.